createdAt,value
2022-09-21T00:15:44.131Z,89.16
2022-09-21T00:32:33.518Z,89.48
2022-09-21T00:49:24.751Z,89.50
2022-09-21T01:06:13.299Z,89.64
2022-09-21T01:23:23.744Z,89.65
2022-09-21T01:40:17.176Z,89.68
2022-09-21T01:57:13.493Z,89.78
2022-09-21T02:14:02.434Z,89.75
2022-09-21T02:30:59.971Z,89.68
2022-09-21T02:47:53.799Z,89.40
2022-09-21T03:04:48.039Z,89.01
2022-09-21T03:21:39.176Z,88.72
2022-09-21T03:38:30.150Z,88.86
2022-09-21T03:55:18.287Z,88.67
2022-09-21T04:12:09.660Z,88.59
2022-09-21T04:28:58.882Z,88.81
2022-09-21T04:45:49.281Z,88.70
2022-09-21T05:02:37.388Z,88.41
2022-09-21T05:19:25.645Z,88.04
2022-09-21T05:36:30.710Z,87.91
2022-09-21T05:53:55.818Z,87.31
2022-09-21T06:10:47.040Z,86.57
2022-09-21T06:27:38.815Z,86.48
2022-09-21T06:44:30.876Z,85.28
2022-09-21T07:01:20.509Z,84.71
2022-09-21T07:18:16.249Z,84.08
2022-09-21T07:35:10.719Z,82.92
2022-09-21T07:52:03.492Z,81.52
2022-09-21T08:08:58.024Z,80.62
2022-09-21T08:25:49.138Z,79.33
2022-09-21T08:42:53.207Z,78.80
2022-09-21T08:59:47.878Z,77.83
2022-09-21T09:16:47.704Z,77.58
2022-09-21T09:33:46.571Z,77.55
2022-09-21T09:50:38.274Z,76.96
2022-09-21T10:07:38.162Z,76.30
2022-09-21T10:24:31.114Z,75.72
2022-09-21T10:41:19.486Z,74.96
2022-09-21T10:58:13.435Z,73.87
2022-09-21T11:15:12.726Z,72.87
2022-09-21T11:32:17.268Z,72.21
2022-09-21T11:49:28.093Z,71.52
2022-09-21T12:06:25.635Z,71.02
2022-09-21T12:23:21.083Z,69.47
2022-09-21T12:40:22.070Z,68.36
2022-09-21T12:57:42.680Z,67.53
2022-09-21T13:14:29.363Z,66.83
2022-09-21T13:31:45.156Z,66.54
2022-09-21T13:48:34.881Z,67.53
2022-09-21T14:05:32.293Z,67.99
2022-09-21T14:22:45.902Z,68.13
2022-09-21T14:39:41.081Z,69.11
2022-09-21T14:56:40.428Z,69.31
2022-09-21T15:14:02.439Z,69.18
2022-09-21T15:30:52.307Z,68.75
2022-09-21T15:47:42.563Z,68.85
2022-09-21T16:04:34.151Z,68.91
2022-09-21T16:21:27.987Z,69.77
2022-09-21T16:38:17.452Z,71.52
2022-09-21T16:55:06.611Z,71.64
2022-09-21T17:11:56.692Z,71.43
2022-09-21T17:28:45.807Z,71.48
2022-09-21T17:45:40.510Z,71.96
2022-09-21T18:02:30.004Z,72.50
2022-09-21T18:19:38.985Z,73.28
2022-09-21T18:36:33.917Z,73.97
2022-09-21T18:53:31.126Z,74.31
2022-09-21T19:10:26.079Z,75.11
2022-09-21T19:27:24.089Z,75.86
2022-09-21T19:44:31.998Z,76.42
2022-09-21T20:01:24.633Z,77.31
2022-09-21T20:18:21.974Z,77.17
2022-09-21T20:35:16.536Z,77.46
2022-09-21T20:52:09.659Z,77.82
2022-09-21T21:09:00.137Z,78.14
2022-09-21T21:25:50.682Z,78.68
2022-09-21T21:42:43.196Z,79.06
2022-09-21T21:59:32.800Z,79.78
2022-09-21T22:16:23.514Z,79.93
2022-09-21T22:33:12.601Z,80.42
2022-09-21T22:50:01.914Z,80.89
2022-09-21T23:06:51.544Z,81.02
2022-09-21T23:23:43.578Z,81.02
2022-09-21T23:40:31.711Z,81.20
2022-09-21T23:57:19.901Z,81.33
